KLFT/LFT METAR and TAF weather

Enter ICAO airport designator
Station Type Date Time Source
KLFT METAR 2020/01/20 15:53 UTC NOAA

KLFT 201553Z 02016G22KT 10SM CLR 08/M03 A3055 RMK AO2 SLP344 T00781028


Station Type Date Time Source
KLFT Decoded METAR 2020/01/20 15:53 UTC NOAA

LAFAYETTE REGIONAL AIRPORT, LA, United States (KLFT) 30-12N 092-00W 11M
Jan 20, 2020 - 10:53 AM EST / 2020.01.20 1553 UTC
Wind: from the NNE (020 degrees) at 18 MPH (16 KT) gusting to 25 MPH (22 KT):0
Visibility: 10 mile(s):0
Sky conditions: clear
Temperature: 46.0 F (7.8 C)
Dew Point: 27.0 F (-2.8 C)
Relative Humidity: 47%
Pressure (altimeter): 30.55 in. Hg (1034 hPa)
ob: KLFT 201553Z 02016G22KT 10SM CLR 08/M03 A3055 RMK AO2 SLP344 T00781028
cycle: 16

Station Type Date Time Source
KLFT TAF 2020/01/20 12:22 UTC NOAA

TAF KLFT 201120Z 2012/2112 35006KT P6SM SKC
FM201500 01012G18KT P6SM SKC
FM210000 01007KT P6SM SCT250

Example: see airport list